Time;durP1;ratioP1;P1;durP2;ratioP2;P2;SDS_P1;SDS_P2;PMS_P1;PMS_P2;Temp;Humidity;BMP_temperature;BMP_pressure;BME280_temperature;BME280_humidity;BME280_pressure;Samples;Min_cycle;Max_cycle;Signal;HPM_P1;HPM_P2
2023/04/29 00:01:36;;;;;;;7.80;4.15;;;;;;;12.90;91.07;101169.13;5066873;28;20052;-61
2023/04/29 00:04:03;;;;;;;7.75;4.55;;;;;;;12.69;92.73;101159.78;5072475;28;20053;-62
2023/04/29 00:06:31;;;;;;;6.00;4.38;;;;;;;12.92;92.20;101155.81;5071793;28;20049;-63
2023/04/29 00:08:58;;;;;;;6.40;4.55;;;;;;;12.70;92.99;101158.63;5074239;28;20057;-63
2023/04/29 00:11:26;;;;;;;8.13;4.10;;;;;;;12.83;92.17;101154.94;5070572;28;20053;-62
2023/04/29 00:13:53;;;;;;;7.13;3.95;;;;;;;12.85;92.34;101154.66;5073163;28;20408;-62
2023/04/29 00:16:20;;;;;;;6.93;4.30;;;;;;;12.79;92.35;101156.72;5074059;28;20059;-61
2023/04/29 00:18:48;;;;;;;7.75;4.47;;;;;;;12.73;92.88;101159.94;5073204;28;20052;-62
2023/04/29 00:21:15;;;;;;;13.38;5.00;;;;;;;12.62;93.71;101162.16;5072346;28;20063;-62
2023/04/29 00:23:42;;;;;;;6.00;3.90;;;;;;;12.85;92.92;101160.97;5075321;28;20048;-62
2023/04/29 00:26:10;;;;;;;7.05;4.10;;;;;;;12.95;91.69;101154.38;5074559;28;20048;-62
2023/04/29 00:28:38;;;;;;;7.03;4.40;;;;;;;12.78;92.04;101152.31;5074650;28;20056;-62
2023/04/29 00:31:05;;;;;;;7.55;4.70;;;;;;;12.57;94.02;101144.91;5074229;28;20059;-62
2023/04/29 00:33:33;;;;;;;6.43;4.15;;;;;;;12.74;93.52;101148.56;5073923;28;20060;-62
2023/04/29 00:36:01;;;;;;;8.90;4.30;;;;;;;12.63;93.75;101151.91;5073063;28;20059;-62
2023/04/29 00:38:28;;;;;;;6.88;4.60;;;;;;;12.61;94.58;101145.88;5073654;28;20048;-62
2023/04/29 00:40:56;;;;;;;8.15;4.65;;;;;;;12.67;94.51;101153.75;5056024;28;20053;-62
2023/04/29 00:43:23;;;;;;;6.85;4.40;;;;;;;12.71;94.16;101137.34;5072540;28;20059;-62
2023/04/29 00:45:50;;;;;;;7.80;4.47;;;;;;;12.87;92.86;101144.06;5072943;28;20056;-63
2023/04/29 00:48:18;;;;;;;6.50;4.38;;;;;;;12.60;94.01;101134.03;5072861;28;20048;-62
2023/04/29 00:50:45;;;;;;;7.10;4.40;;;;;;;12.68;93.83;101135.19;5072970;28;20048;-62
2023/04/29 00:53:13;;;;;;;8.65;4.80;;;;;;;12.56;94.55;101141.31;5074563;28;20479;-63
2023/04/29 00:55:41;;;;;;;11.10;4.60;;;;;;;12.74;93.70;101147.75;5073656;28;20055;-63
2023/04/29 00:58:09;;;;;;;7.43;4.85;;;;;;;12.39;95.20;101147.56;5074331;28;20452;-63
2023/04/29 01:00:36;;;;;;;6.68;4.75;;;;;;;12.72;94.26;101141.72;5041925;28;20056;-62
2023/04/29 01:03:04;;;;;;;7.47;5.10;;;;;;;12.54;94.63;101140.81;5073836;28;20048;-62
2023/04/29 01:05:32;;;;;;;9.23;5.15;;;;;;;12.57;94.63;101136.59;5073155;28;20052;-62
2023/04/29 01:08:03;;;;;;;7.95;5.57;;;;;;;12.30;95.85;101134.81;5073368;28;20052;-62
2023/04/29 01:10:35;;;;;;;10.25;5.90;;;;;;;12.31;97.03;101142.78;5071537;28;20079;-62
2023/04/29 01:13:10;;;;;;;8.25;4.97;;;;;;;12.60;95.85;101142.31;5073694;28;20049;-62
2023/04/29 01:15:47;;;;;;;11.07;4.80;;;;;;;12.78;93.45;101148.75;5071732;28;20403;-62
2023/04/29 01:18:26;;;;;;;7.50;5.22;;;;;;;12.65;93.86;101141.34;5055969;28;20052;-62
2023/04/29 01:20:56;;;;;;;7.68;5.25;;;;;;;12.79;93.15;101133.78;5037583;28;20169;-62
2023/04/29 01:23:27;;;;;;;7.45;5.00;;;;;;;12.75;92.88;101136.38;5039995;28;20048;-62
2023/04/29 01:25:56;;;;;;;9.23;5.75;;;;;;;12.59;92.88;101139.88;5070970;28;20049;-62
2023/04/29 01:28:50;;;;;;;7.88;5.65;;;;;;;12.73;93.40;101137.81;5074005;28;20052;-62
2023/04/29 01:31:34;;;;;;;9.10;5.57;;;;;;;12.37;94.04;101144.28;5061852;28;20377;-62
2023/04/29 01:34:13;;;;;;;10.32;5.97;;;;;;;12.55;94.35;101147.16;5069765;28;20067;-63
2023/04/29 01:36:43;;;;;;;10.05;5.78;;;;;;;12.72;93.87;101142.53;5050411;28;20049;-63
2023/04/29 01:39:20;;;;;;;8.07;5.20;;;;;;;13.00;91.88;101134.88;5062463;28;20400;-64
2023/04/29 01:42:13;;;;;;;8.95;4.95;;;;;;;13.03;91.21;101137.84;5054845;28;20510;-64
2023/04/29 01:44:41;;;;;;;7.53;5.05;;;;;;;12.84;91.18;101130.88;5072258;28;20048;-62
2023/04/29 01:47:12;;;;;;;8.65;5.13;;;;;;;12.61;92.76;101132.06;5070985;28;20052;-62
2023/04/29 01:49:45;;;;;;;7.40;5.35;;;;;;;12.77;93.13;101131.34;5065603;28;20059;-63
2023/04/29 01:52:13;;;;;;;9.18;5.63;;;;;;;12.65;93.07;101133.91;5071591;28;20052;-61
2023/04/29 01:54:49;;;;;;;7.97;5.32;;;;;;;12.80;92.43;101132.66;5057072;28;20063;-64
2023/04/29 01:57:18;;;;;;;9.63;5.60;;;;;;;12.78;92.71;101132.19;5071185;28;20053;-63
2023/04/29 02:00:10;;;;;;;9.77;6.13;;;;;;;12.47;93.82;101132.16;5058704;28;20060;-62
2023/04/29 02:02:43;;;;;;;9.85;5.55;;;;;;;12.75;93.10;101132.78;5056574;28;20056;-64
2023/04/29 02:05:19;;;;;;;8.90;6.18;;;;;;;12.13;95.70;101141.00;5056012;28;20044;-63
2023/04/29 02:07:53;;;;;;;9.90;6.25;;;;;;;11.95;97.71;101130.97;5071856;28;20056;-62
2023/04/29 02:10:21;;;;;;;8.32;6.18;;;;;;;12.03;98.38;101130.22;5088872;28;20056;-62
2023/04/29 02:12:53;;;;;;;10.73;6.35;;;;;;;11.91;98.55;101127.19;5071738;28;20061;-61
2023/04/29 02:15:20;;;;;;;8.82;5.70;;;;;;;11.93;99.03;101129.63;5072739;28;20059;-62
2023/04/29 02:17:48;;;;;;;8.95;6.43;;;;;;;12.06;98.67;101129.63;5069325;28;20063;-62
2023/04/29 02:20:20;;;;;;;11.07;6.57;;;;;;;12.03;98.15;101130.22;5037926;28;20049;-63
2023/04/29 02:22:47;;;;;;;9.25;6.03;;;;;;;12.14;98.34;101139.06;5071078;28;20059;-62
2023/04/29 02:25:14;;;;;;;9.02;6.50;;;;;;;12.12;98.11;101142.16;5067549;28;20045;-62
2023/04/29 02:27:42;;;;;;;9.00;5.90;;;;;;;12.27;97.50;101146.50;5074889;28;20542;-62
2023/04/29 02:30:10;;;;;;;9.93;6.50;;;;;;;12.31;96.01;101144.72;5076107;28;20052;-62
2023/04/29 02:32:39;;;;;;;10.90;6.07;;;;;;;12.38;95.29;101147.84;5054278;28;20404;-62
2023/04/29 02:35:07;;;;;;;13.57;6.50;;;;;;;12.19;96.47;101141.69;5073334;28;20295;-62
2023/04/29 02:37:34;;;;;;;9.77;6.53;;;;;;;12.33;96.68;101147.97;5076069;28;20044;-62
2023/04/29 02:40:02;;;;;;;8.13;6.18;;;;;;;12.39;95.42;101146.75;5072634;28;20044;-62
2023/04/29 02:42:30;;;;;;;9.52;6.72;;;;;;;12.43;94.83;101145.78;5057611;28;20052;-62
2023/04/29 02:45:00;;;;;;;9.25;6.65;;;;;;;12.50;95.00;101141.75;5077095;28;20040;-62
2023/04/29 02:47:27;;;;;;;8.57;6.57;;;;;;;12.28;94.67;101146.16;5057683;28;20060;-62
2023/04/29 02:49:55;;;;;;;11.45;6.88;;;;;;;12.05;97.01;101149.22;5075080;28;20071;-63
2023/04/29 02:52:22;;;;;;;8.73;6.35;;;;;;;12.14;97.24;101142.66;5076577;28;20052;-62
2023/04/29 02:54:50;;;;;;;10.32;7.25;;;;;;;12.14;97.32;101150.94;5075611;28;20063;-62
2023/04/29 02:57:17;;;;;;;12.75;7.07;;;;;;;12.16;97.56;101154.22;5074827;28;20053;-62
2023/04/29 02:59:45;;;;;;;10.32;6.95;;;;;;;12.24;96.62;101141.56;5057882;28;20059;-62
2023/04/29 03:02:12;;;;;;;10.23;6.75;;;;;;;12.15;96.66;101144.28;5073928;28;20052;-62
2023/04/29 03:04:40;;;;;;;10.48;6.68;;;;;;;12.11;97.89;101150.75;5075065;28;20060;-62
2023/04/29 03:07:07;;;;;;;10.13;6.90;;;;;;;12.39;97.09;101149.50;5056126;28;20049;-62
2023/04/29 03:09:36;;;;;;;9.70;6.72;;;;;;;12.47;95.37;101148.72;5059260;28;20423;-62
2023/04/29 03:12:03;;;;;;;9.50;6.97;;;;;;;12.43;95.06;101148.53;5074524;28;20045;-62
2023/04/29 03:14:31;;;;;;;9.55;6.45;;;;;;;12.58;94.69;101150.09;5061753;28;20056;-62
2023/04/29 03:16:58;;;;;;;10.55;7.20;;;;;;;12.49;94.37;101152.00;5032633;28;20055;-62
2023/04/29 03:19:25;;;;;;;12.48;7.68;;;;;;;12.22;95.56;101158.47;5061033;28;20546;-63
2023/04/29 03:21:52;;;;;;;11.27;7.47;;;;;;;12.19;96.44;101153.56;5068725;28;20052;-62
2023/04/29 03:24:21;;;;;;;11.75;6.97;;;;;;;12.32;95.97;101162.94;5076136;28;20045;-61
2023/04/29 03:26:48;;;;;;;10.63;7.43;;;;;;;12.23;95.24;101159.28;5055613;28;20041;-62
2023/04/29 03:29:18;;;;;;;9.60;7.55;;;;;;;12.44;95.48;101158.47;5076042;28;20071;-62
2023/04/29 03:31:46;;;;;;;11.63;8.10;;;;;;;12.42;94.74;101162.69;5055977;28;20052;-62
2023/04/29 03:34:14;;;;;;;11.77;8.07;;;;;;;12.41;94.91;101172.09;5075851;28;20440;-62
2023/04/29 03:36:47;;;;;;;9.68;7.30;;;;;;;12.57;94.47;101175.28;5056164;28;20052;-62
2023/04/29 03:39:15;;;;;;;9.80;7.57;;;;;;;12.34;94.24;101166.22;5075016;28;20403;-62
2023/04/29 03:41:42;;;;;;;10.32;7.22;;;;;;;12.11;95.05;101175.59;5072772;28;20055;-62
2023/04/29 03:44:09;;;;;;;10.27;7.93;;;;;;;11.99;97.16;101175.34;5076731;28;20047;-62
2023/04/29 03:46:38;;;;;;;12.65;7.75;;;;;;;11.86;97.14;101165.13;5072679;28;20052;-62
2023/04/29 03:49:06;;;;;;;10.18;7.45;;;;;;;11.90;98.70;101172.50;5074406;28;20053;-62
2023/04/29 03:51:34;;;;;;;12.57;8.20;;;;;;;11.92;97.98;101167.50;5072759;28;20059;-63
2023/04/29 03:54:09;;;;;;;11.98;8.10;;;;;;;11.94;97.67;101173.50;5073832;28;20053;-62
2023/04/29 03:56:37;;;;;;;12.60;8.98;;;;;;;11.70;98.63;101178.47;5056564;28;20048;-62
2023/04/29 03:59:04;;;;;;;12.48;8.73;;;;;;;11.64;99.96;101176.97;5073833;28;20454;-63
2023/04/29 04:01:32;;;;;;;13.75;9.77;;;;;;;11.63;100.00;101175.28;5063333;28;20143;-62
2023/04/29 04:03:59;;;;;;;14.85;8.80;;;;;;;11.77;100.00;101187.13;5040732;28;20059;-65
2023/04/29 04:06:27;;;;;;;12.32;8.65;;;;;;;11.70;99.90;101188.72;5072800;28;20056;-61
2023/04/29 04:08:55;;;;;;;13.50;9.23;;;;;;;11.59;100.00;101182.56;5074178;28;20508;-63
2023/04/29 04:11:28;;;;;;;13.45;10.43;;;;;;;11.70;99.84;101188.72;5071178;28;20056;-62
2023/04/29 04:14:04;;;;;;;13.32;9.32;;;;;;;11.70;99.03;101191.47;5074310;28;20049;-62
2023/04/29 04:16:31;;;;;;;15.47;10.33;;;;;;;11.91;98.42;101176.88;5072573;28;20056;-62
2023/04/29 04:18:59;;;;;;;12.40;10.05;;;;;;;11.72;98.28;101181.75;5073746;28;20060;-62
2023/04/29 04:21:27;;;;;;;15.32;10.93;;;;;;;11.63;100.00;101191.84;5072903;28;20394;-63
2023/04/29 04:24:00;;;;;;;14.35;11.60;;;;;;;11.55;100.00;101197.25;5058352;28;20048;-63
2023/04/29 04:26:29;;;;;;;13.68;11.10;;;;;;;11.63;100.00;101196.56;5072663;28;20061;-61
2023/04/29 04:29:09;;;;;;;12.95;10.45;;;;;;;11.74;99.25;101203.50;5073828;28;20067;-62
2023/04/29 04:32:12;;;;;;;15.93;11.02;;;;;;;11.35;100.00;101204.84;5044709;28;20045;-62
2023/04/29 04:34:39;;;;;;;15.50;11.93;;;;;;;11.19;100.00;101208.22;5064732;28;20052;-62
2023/04/29 04:37:07;;;;;;;15.88;12.23;;;;;;;11.05;100.00;101205.44;5072777;28;20504;-63
2023/04/29 04:39:35;;;;;;;14.32;12.00;;;;;;;11.02;100.00;101210.72;5072829;28;20040;-63
2023/04/29 04:42:03;;;;;;;15.00;12.23;;;;;;;11.04;100.00;101211.25;5072466;28;20512;-63
2023/04/29 04:44:33;;;;;;;19.10;12.95;;;;;;;10.98;100.00;101221.53;5074067;28;20041;-63
2023/04/29 04:47:10;;;;;;;16.98;13.32;;;;;;;10.95;100.00;101216.66;5072871;28;20052;-63
2023/04/29 04:49:51;;;;;;;18.23;13.35;;;;;;;10.98;100.00;101224.31;5072989;28;20056;-62
2023/04/29 04:52:20;;;;;;;18.15;14.32;;;;;;;10.88;100.00;101218.97;5072140;28;20059;-63
2023/04/29 04:54:56;;;;;;;19.52;14.40;;;;;;;10.86;100.00;101229.47;5052979;28;20056;-62
2023/04/29 04:57:26;;;;;;;17.48;13.68;;;;;;;11.04;100.00;101233.28;5071899;28;20040;-63
2023/04/29 04:59:55;;;;;;;18.55;13.23;;;;;;;11.01;100.00;101236.66;5057674;28;20507;-62
2023/04/29 05:02:23;;;;;;;18.15;14.55;;;;;;;10.96;100.00;101240.34;5069661;28;20053;-62
2023/04/29 05:04:51;;;;;;;17.35;13.80;;;;;;;10.90;100.00;101232.44;5057861;28;20047;-62
2023/04/29 05:07:20;;;;;;;18.83;14.50;;;;;;;10.90;100.00;101237.97;5070734;28;20055;-62
2023/04/29 05:09:59;;;;;;;19.37;13.77;;;;;;;10.85;100.00;101246.31;5074131;28;20056;-63
2023/04/29 05:12:29;;;;;;;19.10;13.38;;;;;;;11.12;100.00;101252.72;5071623;28;20063;-61
2023/04/29 05:14:58;;;;;;;15.82;13.15;;;;;;;11.53;100.00;101251.91;5055299;28;20048;-61
2023/04/29 05:17:27;;;;;;;19.35;14.45;;;;;;;11.34;100.00;101250.09;5054753;28;20052;-63
2023/04/29 05:19:55;;;;;;;18.00;13.27;;;;;;;11.51;100.00;101259.69;5055212;28;20064;-62
2023/04/29 05:22:23;;;;;;;19.45;13.75;;;;;;;11.66;100.00;101267.72;5069768;28;20047;-61
2023/04/29 05:24:53;;;;;;;18.58;14.05;;;;;;;11.78;100.00;101259.72;5074973;28;20384;-62
2023/04/29 05:27:21;;;;;;;17.52;14.30;;;;;;;11.74;100.00;101270.56;5053357;28;20396;-61
2023/04/29 05:29:48;;;;;;;17.30;14.55;;;;;;;11.94;99.32;101274.84;5073580;28;20045;-62
2023/04/29 05:32:17;;;;;;;19.95;13.98;;;;;;;11.70;99.48;101275.06;5069477;28;20060;-62
2023/04/29 05:34:45;;;;;;;20.60;15.65;;;;;;;11.88;99.66;101284.34;5070383;28;20060;-62
2023/04/29 05:37:12;;;;;;;17.50;13.93;;;;;;;11.98;98.33;101286.88;5073304;28;20468;-62
2023/04/29 05:39:57;;;;;;;18.13;14.68;;;;;;;11.15;100.00;101309.19;5052951;28;20504;-61
2023/04/29 05:42:25;;;;;;;25.60;17.17;;;;;;;10.76;100.00;101298.56;5052607;28;20059;-61
2023/04/29 05:44:52;;;;;;;24.33;17.35;;;;;;;10.91;100.00;101303.81;5055848;28;20056;-62
2023/04/29 05:47:20;;;;;;;21.95;16.77;;;;;;;10.88;100.00;101304.41;5069207;28;20488;-61
2023/04/29 05:49:48;;;;;;;22.85;17.40;;;;;;;10.94;100.00;101303.22;5074755;28;20048;-64
2023/04/29 05:52:15;;;;;;;19.85;16.15;;;;;;;11.32;100.00;101303.91;5070375;28;20079;-63
2023/04/29 05:54:45;;;;;;;20.17;16.02;;;;;;;11.60;100.00;101307.50;5072372;28;20056;-61
2023/04/29 05:57:13;;;;;;;29.52;16.83;;;;;;;11.68;100.00;101315.13;5072928;28;20040;-62
2023/04/29 05:59:40;;;;;;;22.73;15.85;;;;;;;11.20;100.00;101312.69;5073757;28;20135;-62
2023/04/29 06:02:09;;;;;;;23.55;17.30;;;;;;;11.01;100.00;101324.88;5056594;28;20060;-62
2023/04/29 06:04:40;;;;;;;22.33;16.67;;;;;;;11.18;100.00;101320.44;5044221;28;20515;-63
2023/04/29 06:07:27;;;;;;;24.25;17.20;;;;;;;11.26;100.00;101321.69;5073174;28;20496;-61
2023/04/29 06:10:00;;;;;;;23.00;17.35;;;;;;;11.04;100.00;101330.59;5076685;28;20504;-64
2023/04/29 06:12:29;;;;;;;24.55;17.75;;;;;;;10.86;100.00;101323.19;5073903;28;20055;-63
2023/04/29 06:14:57;;;;;;;23.58;17.83;;;;;;;10.83;100.00;101328.47;5075412;28;20048;-63
2023/04/29 06:17:28;;;;;;;21.70;16.80;;;;;;;10.90;100.00;101326.97;5057619;28;20044;-61
2023/04/29 06:19:55;;;;;;;21.80;16.67;;;;;;;10.96;100.00;101323.03;5077168;28;20467;-62
2023/04/29 06:22:23;;;;;;;22.90;16.95;;;;;;;11.18;100.00;101336.97;5021884;28;20041;-62
2023/04/29 06:24:53;;;;;;;23.58;17.20;;;;;;;11.07;100.00;101334.72;5081620;28;20407;-63
2023/04/29 06:27:39;;;;;;;24.70;16.83;;;;;;;11.01;100.00;101333.97;5074860;28;20052;-63
2023/04/29 06:30:07;;;;;;;26.02;16.65;;;;;;;11.09;100.00;101332.44;5076320;28;20071;-62
2023/04/29 06:32:35;;;;;;;26.20;17.13;;;;;;;11.04;100.00;101338.88;5073242;28;20052;-62
2023/04/29 06:35:02;;;;;;;28.25;17.40;;;;;;;11.10;100.00;101334.94;5078189;28;20075;-63
2023/04/29 06:37:48;;;;;;;24.08;17.50;;;;;;;11.27;100.00;101340.69;5075800;28;20044;-63
2023/04/29 06:40:31;;;;;;;25.38;17.15;;;;;;;10.96;100.00;101342.34;5075558;28;20064;-62
2023/04/29 06:43:05;;;;;;;26.63;17.42;;;;;;;10.93;100.00;101337.41;5076667;28;20053;-63
2023/04/29 06:45:52;;;;;;;27.70;18.17;;;;;;;11.08;100.00;101341.84;5074770;28;20161;-62
2023/04/29 06:48:22;;;;;;;24.92;17.15;;;;;;;11.09;100.00;101346.22;5059523;28;20052;-62
2023/04/29 06:50:50;;;;;;;28.08;17.73;;;;;;;11.21;100.00;101347.41;5056708;28;20048;-62
2023/04/29 06:53:18;;;;;;;29.67;18.17;;;;;;;11.36;100.00;101340.81;5078047;28;20076;-63
2023/04/29 06:55:46;;;;;;;27.17;17.88;;;;;;;11.21;100.00;101347.41;5073970;28;20052;-63
2023/04/29 06:58:17;;;;;;;29.33;18.15;;;;;;;11.34;100.00;101349.38;5076713;28;20040;-62
2023/04/29 07:00:49;;;;;;;27.90;18.13;;;;;;;11.18;100.00;101347.19;5059213;28;20057;-62
2023/04/29 07:03:17;;;;;;;27.48;18.92;;;;;;;11.25;100.00;101353.97;5074388;28;20064;-63
2023/04/29 07:05:45;;;;;;;30.80;20.00;;;;;;;11.14;100.00;101355.25;5070082;28;20079;-61
2023/04/29 07:08:13;;;;;;;30.50;19.60;;;;;;;11.33;100.00;101356.00;5076061;28;20052;-62
2023/04/29 07:10:40;;;;;;;34.17;20.35;;;;;;;11.42;100.00;101358.88;5072884;28;20048;-62
2023/04/29 07:13:08;;;;;;;32.20;21.70;;;;;;;11.70;100.00;101357.03;5069999;28;20157;-63
2023/04/29 07:15:35;;;;;;;40.22;25.80;;;;;;;11.34;100.00;101363.19;5075111;28;20060;-63
2023/04/29 07:18:04;;;;;;;37.47;24.85;;;;;;;11.41;100.00;101367.47;5057815;28;20056;-62
2023/04/29 07:20:32;;;;;;;38.83;26.23;;;;;;;11.66;100.00;101367.88;5073675;28;20052;-62
2023/04/29 07:22:59;;;;;;;40.08;28.00;;;;;;;11.92;100.00;101368.19;5064700;28;20049;-61
2023/04/29 07:25:28;;;;;;;39.10;26.08;;;;;;;12.00;100.00;101371.06;5056950;28;20049;-62
2023/04/29 07:27:55;;;;;;;39.33;26.67;;;;;;;11.88;100.00;101373.50;5075594;28;20048;-66
2023/04/29 07:30:25;;;;;;;43.05;26.40;;;;;;;11.48;100.00;101381.69;5057472;28;20389;-63
2023/04/29 07:32:52;;;;;;;38.10;24.80;;;;;;;11.55;100.00;101371.06;5075342;28;20048;-63
2023/04/29 07:35:20;;;;;;;43.13;27.20;;;;;;;11.53;100.00;101376.91;5073182;28;20056;-62
2023/04/29 07:37:48;;;;;;;41.97;27.20;;;;;;;11.55;100.00;101385.69;5075050;28;20044;-62
2023/04/29 07:40:15;;;;;;;41.75;26.65;;;;;;;11.41;100.00;101389.53;5054920;28;20056;-62
2023/04/29 07:42:43;;;;;;;40.42;28.30;;;;;;;11.56;100.00;101392.03;5075765;28;20060;-62
2023/04/29 07:45:12;;;;;;;45.95;28.10;;;;;;;11.72;100.00;101382.38;5074127;28;20049;-63
2023/04/29 07:47:40;;;;;;;42.50;26.25;;;;;;;11.94;100.00;101388.03;5071776;28;20381;-62
2023/04/29 07:50:08;;;;;;;41.38;25.42;;;;;;;11.74;100.00;101389.22;5071509;28;20056;-63
2023/04/29 07:52:35;;;;;;;38.50;25.85;;;;;;;11.95;100.00;101389.66;5075162;28;20056;-62
2023/04/29 07:55:03;;;;;;;44.67;28.85;;;;;;;11.92;100.00;101393.03;5074837;28;20055;-64
2023/04/29 07:57:30;;;;;;;49.20;29.55;;;;;;;11.91;100.00;101388.63;5056560;28;20484;-62
2023/04/29 07:59:58;;;;;;;47.13;29.00;;;;;;;12.03;100.00;101388.97;5074348;28;20064;-63
2023/04/29 08:02:25;;;;;;;45.35;29.63;;;;;;;11.78;100.00;101394.97;5073547;28;20059;-63
2023/04/29 08:04:54;;;;;;;53.17;31.00;;;;;;;11.44;100.00;101397.22;5073603;28;20051;-63
2023/04/29 08:07:23;;;;;;;47.90;30.08;;;;;;;11.63;100.00;101397.97;5074694;28;20048;-63
2023/04/29 08:09:50;;;;;;;57.38;33.25;;;;;;;11.46;100.00;101400.47;5073286;28;20067;-63
2023/04/29 08:12:18;;;;;;;51.13;31.05;;;;;;;11.84;100.00;101399.25;5071831;28;20049;-62
2023/04/29 08:14:46;;;;;;;51.30;34.75;;;;;;;12.08;100.00;101399.91;5074061;28;20052;-62
2023/04/29 08:17:14;;;;;;;57.58;33.58;;;;;;;12.02;100.00;101398.34;5072499;28;20060;-62
2023/04/29 08:19:41;;;;;;;52.00;32.78;;;;;;;12.03;100.00;101395.28;5071798;28;20043;-62
2023/04/29 08:22:11;;;;;;;50.22;31.15;;;;;;;12.25;99.69;101400.91;5073596;28;20056;-62
2023/04/29 08:24:38;;;;;;;42.92;30.30;;;;;;;12.27;98.33;101393.13;5072023;28;20060;-63
2023/04/29 08:27:05;;;;;;;46.28;31.02;;;;;;;12.29;98.10;101399.16;5068954;28;20055;-63
2023/04/29 08:29:34;;;;;;;45.97;28.98;;;;;;;12.32;97.44;101400.50;5078707;28;20055;-63
2023/04/29 08:32:01;;;;;;;44.20;29.13;;;;;;;12.38;96.70;101404.78;5079613;28;20059;-63
2023/04/29 08:34:30;;;;;;;38.83;27.42;;;;;;;12.24;96.06;101403.97;5077235;28;20045;-63
2023/04/29 08:36:57;;;;;;;42.00;26.80;;;;;;;12.17;96.66;101409.06;5074530;28;20060;-63
2023/04/29 08:39:24;;;;;;;37.53;25.70;;;;;;;12.25;95.63;101403.69;5073861;28;20063;-62
2023/04/29 08:41:53;;;;;;;34.70;23.60;;;;;;;12.46;94.99;101409.59;5036037;28;20048;-63
2023/04/29 08:44:21;;;;;;;39.55;24.98;;;;;;;12.49;92.84;101411.72;5068251;28;20060;-63
2023/04/29 08:46:48;;;;;;;39.50;26.63;;;;;;;12.45;91.84;101416.22;5072820;28;20056;-63
2023/04/29 08:49:16;;;;;;;43.20;26.17;;;;;;;12.27;93.46;101408.91;5072193;28;20056;-63
2023/04/29 08:51:44;;;;;;;41.47;25.65;;;;;;;12.68;92.91;101409.66;5070441;28;20067;-64
2023/04/29 08:54:11;;;;;;;41.88;26.42;;;;;;;12.85;91.08;101409.78;5074726;28;20064;-65
2023/04/29 08:56:38;;;;;;;41.45;26.27;;;;;;;12.85;89.20;101415.31;5072929;28;20051;-63
2023/04/29 08:59:08;;;;;;;46.40;28.80;;;;;;;12.68;89.70;101412.41;5062326;28;20052;-60
2023/04/29 09:01:37;;;;;;;48.33;29.55;;;;;;;12.55;91.33;101417.97;5060121;28;20067;-61
2023/04/29 09:04:07;;;;;;;46.08;26.92;;;;;;;12.84;90.88;101410.13;5036718;28;20059;-61
2023/04/29 09:06:34;;;;;;;43.45;27.55;;;;;;;12.84;88.37;101421.19;5070507;28;20041;-61
2023/04/29 09:09:02;;;;;;;47.42;29.90;;;;;;;12.99;89.02;101416.09;5059382;28;20048;-60
2023/04/29 09:11:31;;;;;;;47.42;30.13;;;;;;;12.94;87.89;101424.53;5064567;28;20041;-60
2023/04/29 09:14:00;;;;;;;51.50;31.88;;;;;;;12.98;88.28;101421.94;5053742;28;20057;-60
2023/04/29 09:16:28;;;;;;;46.17;30.20;;;;;;;13.45;87.18;101421.38;5064850;28;20802;-62
2023/04/29 09:18:55;;;;;;;48.85;32.47;;;;;;;13.28;85.97;101430.38;5064073;28;20052;-62
2023/04/29 09:21:27;;;;;;;46.05;31.48;;;;;;;13.33;85.64;101430.25;5072016;28;20047;-62
2023/04/29 09:23:56;;;;;;;44.85;30.42;;;;;;;13.11;86.22;101423.91;5057533;28;20380;-62
2023/04/29 09:26:24;;;;;;;46.03;30.80;;;;;;;13.14;87.22;101434.31;5069037;28;20487;-63
2023/04/29 09:29:17;;;;;;;47.53;32.03;;;;;;;13.11;86.23;101432.19;5059923;28;20075;-63
2023/04/29 09:31:45;;;;;;;48.65;31.52;;;;;;;13.34;85.94;101431.06;5087024;28;20045;-62
2023/04/29 09:34:13;;;;;;;50.72;31.92;;;;;;;13.48;85.60;101435.41;5059405;28;20059;-63
2023/04/29 09:36:47;;;;;;;43.97;30.73;;;;;;;13.95;84.50;101431.09;5053015;28;20048;-63
2023/04/29 09:39:16;;;;;;;41.15;30.92;;;;;;;14.18;81.82;101437.41;5067052;28;20033;-64
2023/04/29 09:41:53;;;;;;;46.85;31.67;;;;;;;13.92;81.47;101436.47;5052315;28;20057;-63
2023/04/29 09:44:23;;;;;;;47.80;31.52;;;;;;;13.79;82.79;101431.84;5059455;28;20278;-63
2023/04/29 09:47:07;;;;;;;48.22;32.03;;;;;;;13.32;84.51;101434.13;5064487;28;20045;-63
2023/04/29 09:49:39;;;;;;;47.83;31.52;;;;;;;13.44;84.06;101433.59;5065922;28;20045;-63
2023/04/29 09:52:12;;;;;;;47.13;31.63;;;;;;;13.43;83.85;101435.53;5067941;28;20070;-63
2023/04/29 09:54:40;;;;;;;46.53;30.60;;;;;;;13.61;83.35;101441.19;5069900;28;20055;-62
2023/04/29 09:57:10;;;;;;;40.17;29.75;;;;;;;13.73;82.41;101439.47;5064337;28;20061;-63
2023/04/29 09:59:39;;;;;;;44.38;30.73;;;;;;;13.60;83.46;101436.78;5068166;28;20032;-63
2023/04/29 10:02:14;;;;;;;42.42;30.88;;;;;;;13.91;82.23;101443.16;5071539;28;20048;-64
2023/04/29 10:04:44;;;;;;;46.30;30.48;;;;;;;13.90;82.55;101436.78;5063221;28;20049;-67
2023/04/29 10:07:16;;;;;;;43.78;30.42;;;;;;;13.58;82.55;101432.38;5047551;28;20063;-64
2023/04/29 10:09:46;;;;;;;50.40;30.88;;;;;;;13.55;83.83;101440.47;5061495;28;20467;-62
2023/04/29 10:12:19;;;;;;;50.83;32.53;;;;;;;13.69;83.38;101438.47;5058232;28;20056;-62
2023/04/29 10:14:53;;;;;;;49.67;34.55;;;;;;;13.53;83.16;101442.75;5068758;28;20048;-62
2023/04/29 10:17:52;;;;;;;47.53;30.25;;;;;;;13.69;81.79;101435.69;5074678;28;20040;-64
2023/04/29 10:20:23;;;;;;;42.28;29.17;;;;;;;13.66;80.66;101430.78;5022749;28;20053;-63
2023/04/29 10:22:53;;;;;;;48.10;30.63;;;;;;;13.94;80.64;101434.19;5069664;28;20061;-63
2023/04/29 10:25:23;;;;;;;46.63;29.85;;;;;;;14.15;78.45;101432.50;5067263;28;20064;-66
2023/04/29 10:27:53;;;;;;;43.03;29.45;;;;;;;14.44;78.13;101427.25;5064368;28;20048;-63
2023/04/29 10:30:21;;;;;;;40.58;28.58;;;;;;;14.67;76.59;101428.78;5065252;28;20040;-64
2023/04/29 10:32:50;;;;;;;49.03;33.75;;;;;;;14.28;75.86;101426.06;5061512;28;20071;-63
2023/04/29 10:35:24;;;;;;;44.20;30.35;;;;;;;14.34;75.80;101433.94;5046727;28;20095;-63
2023/04/29 10:37:52;;;;;;;42.67;31.17;;;;;;;14.24;76.79;101436.13;5068794;28;20056;-63
2023/04/29 10:40:35;;;;;;;48.13;31.38;;;;;;;14.41;76.45;101431.50;5057643;28;20049;-62
2023/04/29 10:43:03;;;;;;;45.13;31.02;;;;;;;14.39;76.07;101444.03;5070519;28;20131;-63
2023/04/29 10:45:33;;;;;;;41.92;28.80;;;;;;;14.49;75.10;101449.28;5068399;28;20057;-62
2023/04/29 10:48:01;;;;;;;42.85;29.73;;;;;;;14.36;74.95;101439.16;5068638;28;20061;-62
2023/04/29 10:50:29;;;;;;;43.05;29.58;;;;;;;14.23;75.07;101449.16;5066056;28;20048;-63
2023/04/29 10:52:57;;;;;;;43.38;29.38;;;;;;;14.62;74.31;101443.63;5067549;28;20500;-65
2023/04/29 10:55:24;;;;;;;46.42;29.85;;;;;;;14.42;73.53;101441.44;5052686;28;20486;-62
2023/04/29 10:57:55;;;;;;;43.03;28.90;;;;;;;14.58;72.84;101444.56;5073581;28;20415;-63
2023/04/29 11:00:27;;;;;;;43.47;28.15;;;;;;;14.60;71.29;101448.69;5066141;28;20066;-62
2023/04/29 11:02:59;;;;;;;37.72;27.73;;;;;;;14.56;71.50;101441.31;5071089;28;20060;-62
2023/04/29 11:05:32;;;;;;;37.58;26.80;;;;;;;14.30;72.26;101444.00;5072306;28;20063;-62
2023/04/29 11:08:11;;;;;;;37.40;27.23;;;;;;;14.55;70.96;101446.06;5071765;28;20049;-61
2023/04/29 11:10:42;;;;;;;35.38;26.13;;;;;;;14.61;70.50;101453.06;5071396;28;20063;-61
2023/04/29 11:13:28;;;;;;;34.75;24.02;;;;;;;14.72;69.84;101447.22;5073188;28;20049;-61
2023/04/29 11:16:08;;;;;;;32.72;24.95;;;;;;;14.65;69.38;101453.25;5069605;28;20075;-62
2023/04/29 11:18:36;;;;;;;30.40;23.90;;;;;;;15.23;68.38;101447.28;5073240;28;20496;-61
2023/04/29 11:21:07;;;;;;;34.22;23.80;;;;;;;15.31;67.66;101454.78;5064690;28;20055;-61
2023/04/29 11:23:35;;;;;;;34.80;24.38;;;;;;;15.55;66.78;101457.91;5064450;28;21016;-61
2023/04/29 11:26:02;;;;;;;35.33;25.05;;;;;;;15.30;66.34;101451.19;5072957;28;20057;-62